Airfield :
LOGIN :

Register | Disclaimer

   EN    FR    IT 

 










Legend :    VFR   Marginal VFR   IFR   Intensive IFR   Very Intensive IFR
Visi :
Ceiling :
>= 8 km
>= 3000ft
5 to 8 km
1000 to 3000 ft
1500m to 5 km
500 to 1000 ft
800 to 1500m
200 to 500 ft
< 800m
< 200 ft
Symbols :   Thunderstorms  Fog  Heavy snow  Heavy precipitations  Wind > 20 kt
SIGMETs :     Misc.  Thunderstorms  Icing  Turbulence  Mountain Waves  Volcanic Ashes







- Airport Elevation : 0 ft


ETEB - Ansbach Army Heliport

CURRENT METAR :
  • 180356Z AUTO 30003KT 9999 OVC100 17/14 A3014 RMK AO2 SLP197 T01670143 $

EXPIRED METARs :
  • 180256Z AUTO 31003KT 9999 CLR 17/14 A3013 RMK AO2 SLP192 T01650140 52006 $
  • 180156Z AUTO 29005KT 9999 CLR 17/14 A3012 RMK AO2 SLP188 T01710138 $

TAF TAF ETEB
Valid from the 17 at 21:00 until the 19 at 03:00 UTC


172102Z 1721/1903 VRB06KT 9999 SCT090 QNH3004INS
BECMG 1811/1812 35009KT 8000 -SHRA SCT060 QNH3007INS
BECMG 1817/1818 34009KT 9999 NSW SCT050 QNH3015INS TX26/1814Z TN16/1804Z
No reported NOTAMs for that airfield.



MET'MAP, your aeronautical weather chart ! - Copyright ORBIFLY December 2007 - Disclaimer

ORBIFLY MET'MAP TEAM :

Programming & Development : Alexandra Zaïnal
Concept & Development : Baudouin d'Aumeries
Co-Development & Prog : Marc-Olivier Méhu
Technical & hardware support : Manuel Goepfert

Contact : metmap@orbifly.com




SOURCES & CREDITS :

   NOAA